Search for airport 
image banner adimage banner adimage banner ad
image banner ad

CN16 - Mercy Hospital Of Folsom

Located in Folsom, United States

ICAO - CN16, IATA -

Data provided by Airmate  

General information

Coordinates: N38°40'15" W121°8'34"
Elevation is 335 feet MSL.
 
View others Airports in California

Operational data

Special qualification required
Current time UTC:
Current local time:
Weather at : KMHR - Sacramento Mather ( 19 km )
METAR: KMHR 270445Z 18004KT 10SM SKC 23/06 A2991
TAF: KMHR 270218Z 2702/2724 22012KT P6SM SCT200 FM270300 18013KT P6SM OVC150 FM270700 16007KT P6SM VCSH OVC150 FM271300 15003KT P6SM OVC100 FM272000 31007KT P6SM SCT200 AMD NOT SKED
View NOTAMs / SUP AIP / TFR affecting this airport [VIEW]
Communications frequencies: [VIEW]

Runways:

Airport contact information

Address: Folsom United States

Satellite view of CN16